sensor_id;sensor_type;location;lat;lon;timestamp;P1;durP1;ratioP1;P2;durP2;ratioP2
69890;SDS011;57170;43.964;21.262;2023-07-24T00:00:01;32.28;;;25.08;;
69890;SDS011;57170;43.964;21.262;2023-07-24T00:02:27;32.92;;;26.02;;
69890;SDS011;57170;43.964;21.262;2023-07-24T00:04:53;30.02;;;24.58;;
69890;SDS011;57170;43.964;21.262;2023-07-24T00:07:19;30.95;;;25.02;;
69890;SDS011;57170;43.964;21.262;2023-07-24T00:09:46;29.33;;;26.15;;
69890;SDS011;57170;43.964;21.262;2023-07-24T00:12:12;31.67;;;25.35;;
69890;SDS011;57170;43.964;21.262;2023-07-24T00:14:38;33.13;;;26.67;;
69890;SDS011;57170;43.964;21.262;2023-07-24T00:17:04;27.90;;;24.65;;
69890;SDS011;57170;43.964;21.262;2023-07-24T00:19:30;28.58;;;24.30;;
69890;SDS011;57170;43.964;21.262;2023-07-24T00:21:56;28.45;;;24.35;;
69890;SDS011;57170;43.964;21.262;2023-07-24T00:24:22;26.75;;;23.88;;
69890;SDS011;57170;43.964;21.262;2023-07-24T00:26:48;30.38;;;23.80;;
69890;SDS011;57170;43.964;21.262;2023-07-24T00:29:14;26.95;;;24.02;;
69890;SDS011;57170;43.964;21.262;2023-07-24T00:31:41;27.67;;;24.65;;
69890;SDS011;57170;43.964;21.262;2023-07-24T00:34:07;31.15;;;25.35;;
69890;SDS011;57170;43.964;21.262;2023-07-24T00:36:33;27.95;;;23.63;;
69890;SDS011;57170;43.964;21.262;2023-07-24T00:38:59;29.73;;;24.33;;
69890;SDS011;57170;43.964;21.262;2023-07-24T00:41:25;30.73;;;25.05;;
69890;SDS011;57170;43.964;21.262;2023-07-24T00:43:51;26.40;;;23.55;;
69890;SDS011;57170;43.964;21.262;2023-07-24T00:46:17;32.42;;;26.85;;
69890;SDS011;57170;43.964;21.262;2023-07-24T00:48:43;30.42;;;25.90;;
69890;SDS011;57170;43.964;21.262;2023-07-24T00:51:09;30.73;;;25.23;;
69890;SDS011;57170;43.964;21.262;2023-07-24T00:53:35;31.40;;;24.35;;
69890;SDS011;57170;43.964;21.262;2023-07-24T00:56:02;29.30;;;24.98;;
69890;SDS011;57170;43.964;21.262;2023-07-24T00:58:28;28.85;;;23.95;;
69890;SDS011;57170;43.964;21.262;2023-07-24T01:00:54;30.83;;;25.85;;
69890;SDS011;57170;43.964;21.262;2023-07-24T01:03:20;28.73;;;25.10;;
69890;SDS011;57170;43.964;21.262;2023-07-24T01:05:48;28.67;;;25.23;;
69890;SDS011;57170;43.964;21.262;2023-07-24T01:08:14;31.60;;;26.65;;
69890;SDS011;57170;43.964;21.262;2023-07-24T01:10:40;32.03;;;27.65;;
69890;SDS011;57170;43.964;21.262;2023-07-24T01:13:15;32.72;;;27.42;;
69890;SDS011;57170;43.964;21.262;2023-07-24T01:16:05;31.15;;;26.83;;
69890;SDS011;57170;43.964;21.262;2023-07-24T01:18:29;32.55;;;27.52;;
69890;SDS011;57170;43.964;21.262;2023-07-24T01:20:56;33.88;;;28.40;;
69890;SDS011;57170;43.964;21.262;2023-07-24T01:28:21;31.05;;;27.75;;
69890;SDS011;57170;43.964;21.262;2023-07-24T01:30:47;30.88;;;26.92;;
69890;SDS011;57170;43.964;21.262;2023-07-24T01:33:13;30.42;;;26.48;;
69890;SDS011;57170;43.964;21.262;2023-07-24T01:35:40;34.92;;;28.23;;
69890;SDS011;57170;43.964;21.262;2023-07-24T01:38:13;33.10;;;27.60;;
69890;SDS011;57170;43.964;21.262;2023-07-24T01:40:40;31.40;;;28.10;;
69890;SDS011;57170;43.964;21.262;2023-07-24T01:43:06;33.60;;;26.67;;
69890;SDS011;57170;43.964;21.262;2023-07-24T01:45:33;32.28;;;28.83;;
69890;SDS011;57170;43.964;21.262;2023-07-24T01:47:59;35.97;;;27.60;;
69890;SDS011;57170;43.964;21.262;2023-07-24T01:50:25;30.83;;;27.48;;
69890;SDS011;57170;43.964;21.262;2023-07-24T01:52:51;28.15;;;25.15;;
69890;SDS011;57170;43.964;21.262;2023-07-24T01:55:17;33.58;;;28.08;;
69890;SDS011;57170;43.964;21.262;2023-07-24T01:57:43;30.67;;;25.90;;
69890;SDS011;57170;43.964;21.262;2023-07-24T02:00:10;31.63;;;27.92;;
69890;SDS011;57170;43.964;21.262;2023-07-24T02:02:36;30.58;;;26.60;;
69890;SDS011;57170;43.964;21.262;2023-07-24T02:05:02;32.65;;;28.20;;
69890;SDS011;57170;43.964;21.262;2023-07-24T02:07:28;34.13;;;28.88;;
69890;SDS011;57170;43.964;21.262;2023-07-24T02:09:54;32.72;;;26.48;;
69890;SDS011;57170;43.964;21.262;2023-07-24T02:12:20;29.88;;;26.75;;
69890;SDS011;57170;43.964;21.262;2023-07-24T02:14:46;33.35;;;28.58;;
69890;SDS011;57170;43.964;21.262;2023-07-24T02:17:19;35.15;;;27.23;;
69890;SDS011;57170;43.964;21.262;2023-07-24T02:19:45;33.42;;;26.98;;
69890;SDS011;57170;43.964;21.262;2023-07-24T02:22:11;37.42;;;28.52;;
69890;SDS011;57170;43.964;21.262;2023-07-24T02:24:37;31.50;;;27.58;;
69890;SDS011;57170;43.964;21.262;2023-07-24T02:27:04;30.92;;;27.60;;
69890;SDS011;57170;43.964;21.262;2023-07-24T02:29:31;29.00;;;25.95;;
69890;SDS011;57170;43.964;21.262;2023-07-24T02:31:57;31.02;;;27.13;;
69890;SDS011;57170;43.964;21.262;2023-07-24T02:34:24;30.92;;;27.55;;
69890;SDS011;57170;43.964;21.262;2023-07-24T02:36:54;31.02;;;25.77;;
69890;SDS011;57170;43.964;21.262;2023-07-24T02:39:20;31.30;;;26.98;;
69890;SDS011;57170;43.964;21.262;2023-07-24T02:41:50;31.73;;;26.27;;
69890;SDS011;57170;43.964;21.262;2023-07-24T02:44:16;30.42;;;26.05;;
69890;SDS011;57170;43.964;21.262;2023-07-24T02:46:42;30.80;;;26.13;;
69890;SDS011;57170;43.964;21.262;2023-07-24T02:49:08;33.78;;;26.73;;
69890;SDS011;57170;43.964;21.262;2023-07-24T02:51:34;36.35;;;26.20;;
69890;SDS011;57170;43.964;21.262;2023-07-24T02:54:00;32.95;;;26.35;;
69890;SDS011;57170;43.964;21.262;2023-07-24T02:56:26;32.08;;;28.60;;
69890;SDS011;57170;43.964;21.262;2023-07-24T02:58:52;35.92;;;27.73;;
69890;SDS011;57170;43.964;21.262;2023-07-24T03:01:19;36.65;;;29.20;;
69890;SDS011;57170;43.964;21.262;2023-07-24T03:03:45;34.00;;;28.77;;
69890;SDS011;57170;43.964;21.262;2023-07-24T03:06:11;33.70;;;29.17;;
69890;SDS011;57170;43.964;21.262;2023-07-24T03:08:37;36.67;;;30.13;;
69890;SDS011;57170;43.964;21.262;2023-07-24T03:11:07;36.13;;;30.23;;
69890;SDS011;57170;43.964;21.262;2023-07-24T03:13:33;37.15;;;29.33;;
69890;SDS011;57170;43.964;21.262;2023-07-24T03:15:59;36.15;;;30.13;;
69890;SDS011;57170;43.964;21.262;2023-07-24T03:18:25;34.85;;;30.27;;
69890;SDS011;57170;43.964;21.262;2023-07-24T03:20:51;33.20;;;28.77;;
69890;SDS011;57170;43.964;21.262;2023-07-24T03:23:17;33.38;;;27.83;;
69890;SDS011;57170;43.964;21.262;2023-07-24T03:25:43;33.55;;;29.58;;
69890;SDS011;57170;43.964;21.262;2023-07-24T03:28:09;37.92;;;30.17;;
69890;SDS011;57170;43.964;21.262;2023-07-24T03:30:36;34.85;;;29.88;;
69890;SDS011;57170;43.964;21.262;2023-07-24T03:33:02;39.03;;;30.58;;
69890;SDS011;57170;43.964;21.262;2023-07-24T03:35:28;36.03;;;30.20;;
69890;SDS011;57170;43.964;21.262;2023-07-24T03:37:54;39.92;;;32.58;;
69890;SDS011;57170;43.964;21.262;2023-07-24T03:40:20;35.70;;;31.73;;
69890;SDS011;57170;43.964;21.262;2023-07-24T03:42:46;33.50;;;29.13;;
69890;SDS011;57170;43.964;21.262;2023-07-24T03:45:12;33.50;;;29.95;;
69890;SDS011;57170;43.964;21.262;2023-07-24T03:47:38;36.80;;;30.40;;
69890;SDS011;57170;43.964;21.262;2023-07-24T03:50:04;36.35;;;31.08;;
69890;SDS011;57170;43.964;21.262;2023-07-24T03:52:31;37.65;;;31.88;;
69890;SDS011;57170;43.964;21.262;2023-07-24T03:54:57;34.17;;;30.52;;
69890;SDS011;57170;43.964;21.262;2023-07-24T03:57:23;34.90;;;29.58;;
69890;SDS011;57170;43.964;21.262;2023-07-24T03:59:49;30.58;;;26.88;;
69890;SDS011;57170;43.964;21.262;2023-07-24T04:02:15;33.17;;;26.95;;
69890;SDS011;57170;43.964;21.262;2023-07-24T04:04:41;30.65;;;25.35;;
69890;SDS011;57170;43.964;21.262;2023-07-24T04:07:07;30.35;;;26.92;;
69890;SDS011;57170;43.964;21.262;2023-07-24T04:09:33;33.63;;;28.23;;
69890;SDS011;57170;43.964;21.262;2023-07-24T04:12:00;28.13;;;25.13;;
69890;SDS011;57170;43.964;21.262;2023-07-24T04:14:26;28.13;;;25.15;;
69890;SDS011;57170;43.964;21.262;2023-07-24T04:16:52;30.77;;;24.33;;
69890;SDS011;57170;43.964;21.262;2023-07-24T04:19:20;30.08;;;25.98;;
69890;SDS011;57170;43.964;21.262;2023-07-24T04:21:46;28.13;;;23.43;;
69890;SDS011;57170;43.964;21.262;2023-07-24T04:24:12;27.42;;;24.20;;
69890;SDS011;57170;43.964;21.262;2023-07-24T04:26:38;27.30;;;24.55;;
69890;SDS011;57170;43.964;21.262;2023-07-24T04:29:05;24.15;;;21.58;;
69890;SDS011;57170;43.964;21.262;2023-07-24T04:31:31;23.98;;;21.25;;
69890;SDS011;57170;43.964;21.262;2023-07-24T04:33:58;24.17;;;21.58;;
69890;SDS011;57170;43.964;21.262;2023-07-24T04:36:24;23.10;;;20.65;;
69890;SDS011;57170;43.964;21.262;2023-07-24T04:38:50;24.63;;;20.25;;
69890;SDS011;57170;43.964;21.262;2023-07-24T04:41:16;25.40;;;21.52;;
69890;SDS011;57170;43.964;21.262;2023-07-24T04:43:42;23.00;;;20.23;;
69890;SDS011;57170;43.964;21.262;2023-07-24T04:46:08;24.20;;;20.30;;
69890;SDS011;57170;43.964;21.262;2023-07-24T04:48:35;25.10;;;22.02;;
69890;SDS011;57170;43.964;21.262;2023-07-24T04:51:01;22.92;;;20.23;;
69890;SDS011;57170;43.964;21.262;2023-07-24T04:53:27;23.80;;;19.27;;
69890;SDS011;57170;43.964;21.262;2023-07-24T04:55:53;23.23;;;18.52;;
69890;SDS011;57170;43.964;21.262;2023-07-24T04:58:20;23.23;;;20.42;;
69890;SDS011;57170;43.964;21.262;2023-07-24T05:00:46;19.88;;;17.95;;
69890;SDS011;57170;43.964;21.262;2023-07-24T05:03:12;23.20;;;19.08;;
69890;SDS011;57170;43.964;21.262;2023-07-24T05:05:38;20.95;;;18.95;;
69890;SDS011;57170;43.964;21.262;2023-07-24T05:08:04;22.92;;;19.50;;
69890;SDS011;57170;43.964;21.262;2023-07-24T05:10:34;20.60;;;18.25;;
69890;SDS011;57170;43.964;21.262;2023-07-24T05:13:00;20.88;;;18.77;;
69890;SDS011;57170;43.964;21.262;2023-07-24T05:15:26;21.50;;;16.95;;
69890;SDS011;57170;43.964;21.262;2023-07-24T05:17:52;18.27;;;16.67;;
69890;SDS011;57170;43.964;21.262;2023-07-24T05:20:19;18.80;;;16.90;;
69890;SDS011;57170;43.964;21.262;2023-07-24T05:22:45;18.83;;;16.92;;
69890;SDS011;57170;43.964;21.262;2023-07-24T05:25:11;20.40;;;18.33;;
69890;SDS011;57170;43.964;21.262;2023-07-24T05:27:37;18.20;;;16.40;;
69890;SDS011;57170;43.964;21.262;2023-07-24T05:30:03;16.42;;;14.63;;
69890;SDS011;57170;43.964;21.262;2023-07-24T05:32:29;16.98;;;14.82;;
69890;SDS011;57170;43.964;21.262;2023-07-24T05:34:55;18.95;;;16.98;;
69890;SDS011;57170;43.964;21.262;2023-07-24T05:37:21;18.13;;;16.33;;
69890;SDS011;57170;43.964;21.262;2023-07-24T05:39:48;18.48;;;16.27;;
69890;SDS011;57170;43.964;21.262;2023-07-24T05:42:14;15.85;;;14.20;;
69890;SDS011;57170;43.964;21.262;2023-07-24T05:44:40;16.30;;;14.68;;
69890;SDS011;57170;43.964;21.262;2023-07-24T05:47:06;21.67;;;16.52;;
69890;SDS011;57170;43.964;21.262;2023-07-24T05:49:32;17.20;;;15.32;;
69890;SDS011;57170;43.964;21.262;2023-07-24T05:51:58;17.17;;;15.23;;
69890;SDS011;57170;43.964;21.262;2023-07-24T05:54:24;21.52;;;15.95;;
69890;SDS011;57170;43.964;21.262;2023-07-24T05:56:51;17.25;;;15.57;;
69890;SDS011;57170;43.964;21.262;2023-07-24T05:59:18;18.92;;;15.10;;
69890;SDS011;57170;43.964;21.262;2023-07-24T06:01:44;15.65;;;13.73;;
69890;SDS011;57170;43.964;21.262;2023-07-24T06:04:10;15.18;;;13.65;;
69890;SDS011;57170;43.964;21.262;2023-07-24T06:06:36;16.10;;;14.50;;
69890;SDS011;57170;43.964;21.262;2023-07-24T06:09:02;14.50;;;13.10;;
69890;SDS011;57170;43.964;21.262;2023-07-24T06:11:28;17.98;;;15.73;;
69890;SDS011;57170;43.964;21.262;2023-07-24T06:13:54;15.98;;;14.48;;
69890;SDS011;57170;43.964;21.262;2023-07-24T06:16:21;16.13;;;14.57;;
69890;SDS011;57170;43.964;21.262;2023-07-24T06:18:47;17.00;;;14.80;;
69890;SDS011;57170;43.964;21.262;2023-07-24T06:21:13;15.77;;;14.20;;
69890;SDS011;57170;43.964;21.262;2023-07-24T06:23:39;18.63;;;14.73;;
69890;SDS011;57170;43.964;21.262;2023-07-24T06:26:05;16.40;;;14.63;;
69890;SDS011;57170;43.964;21.262;2023-07-24T06:28:31;16.15;;;14.02;;
69890;SDS011;57170;43.964;21.262;2023-07-24T06:30:58;15.40;;;13.90;;
69890;SDS011;57170;43.964;21.262;2023-07-24T06:33:24;15.18;;;13.23;;
69890;SDS011;57170;43.964;21.262;2023-07-24T06:35:50;16.88;;;14.38;;
69890;SDS011;57170;43.964;21.262;2023-07-24T06:38:16;15.93;;;14.32;;
69890;SDS011;57170;43.964;21.262;2023-07-24T06:40:43;17.60;;;14.00;;
69890;SDS011;57170;43.964;21.262;2023-07-24T06:43:09;16.42;;;14.75;;
69890;SDS011;57170;43.964;21.262;2023-07-24T06:45:35;16.02;;;14.43;;
69890;SDS011;57170;43.964;21.262;2023-07-24T06:48:01;15.90;;;14.27;;
69890;SDS011;57170;43.964;21.262;2023-07-24T06:50:27;16.05;;;14.52;;
69890;SDS011;57170;43.964;21.262;2023-07-24T06:52:53;15.95;;;14.32;;
69890;SDS011;57170;43.964;21.262;2023-07-24T06:55:20;16.20;;;14.52;;
69890;SDS011;57170;43.964;21.262;2023-07-24T06:57:46;18.08;;;16.30;;
69890;SDS011;57170;43.964;21.262;2023-07-24T07:00:12;15.85;;;14.27;;
69890;SDS011;57170;43.964;21.262;2023-07-24T07:02:38;17.15;;;13.60;;
69890;SDS011;57170;43.964;21.262;2023-07-24T07:05:05;15.75;;;14.07;;
69890;SDS011;57170;43.964;21.262;2023-07-24T07:07:31;14.82;;;13.32;;
69890;SDS011;57170;43.964;21.262;2023-07-24T07:09:57;15.88;;;14.30;;
69890;SDS011;57170;43.964;21.262;2023-07-24T07:12:23;15.00;;;13.48;;
69890;SDS011;57170;43.964;21.262;2023-07-24T07:14:49;17.40;;;14.57;;
69890;SDS011;57170;43.964;21.262;2023-07-24T07:17:15;15.13;;;13.63;;
69890;SDS011;57170;43.964;21.262;2023-07-24T07:19:42;14.55;;;13.18;;
69890;SDS011;57170;43.964;21.262;2023-07-24T07:22:08;15.45;;;13.95;;
69890;SDS011;57170;43.964;21.262;2023-07-24T07:24:34;16.67;;;14.13;;
69890;SDS011;57170;43.964;21.262;2023-07-24T07:27:00;14.27;;;12.98;;
69890;SDS011;57170;43.964;21.262;2023-07-24T07:29:26;14.98;;;13.45;;
69890;SDS011;57170;43.964;21.262;2023-07-24T07:31:52;16.10;;;13.93;;
69890;SDS011;57170;43.964;21.262;2023-07-24T07:34:18;14.07;;;12.77;;
69890;SDS011;57170;43.964;21.262;2023-07-24T07:36:44;16.27;;;13.95;;
69890;SDS011;57170;43.964;21.262;2023-07-24T07:39:10;14.35;;;12.95;;
69890;SDS011;57170;43.964;21.262;2023-07-24T07:41:36;16.27;;;14.40;;
69890;SDS011;57170;43.964;21.262;2023-07-24T07:44:03;14.73;;;13.32;;
69890;SDS011;57170;43.964;21.262;2023-07-24T07:46:29;14.77;;;13.35;;
69890;SDS011;57170;43.964;21.262;2023-07-24T07:48:55;14.50;;;12.80;;
69890;SDS011;57170;43.964;21.262;2023-07-24T07:51:21;14.52;;;13.07;;
69890;SDS011;57170;43.964;21.262;2023-07-24T07:53:49;15.95;;;14.23;;
69890;SDS011;57170;43.964;21.262;2023-07-24T07:56:15;16.77;;;13.45;;
69890;SDS011;57170;43.964;21.262;2023-07-24T07:58:41;14.75;;;13.07;;
69890;SDS011;57170;43.964;21.262;2023-07-24T08:01:07;15.65;;;13.93;;
69890;SDS011;57170;43.964;21.262;2023-07-24T08:03:33;16.20;;;14.15;;
69890;SDS011;57170;43.964;21.262;2023-07-24T08:05:59;14.30;;;12.93;;
69890;SDS011;57170;43.964;21.262;2023-07-24T08:08:26;16.08;;;13.13;;
69890;SDS011;57170;43.964;21.262;2023-07-24T08:10:52;15.05;;;13.65;;
69890;SDS011;57170;43.964;21.262;2023-07-24T08:13:18;15.35;;;13.75;;
69890;SDS011;57170;43.964;21.262;2023-07-24T08:15:44;17.15;;;13.65;;
69890;SDS011;57170;43.964;21.262;2023-07-24T08:18:10;18.65;;;13.40;;
69890;SDS011;57170;43.964;21.262;2023-07-24T08:20:36;15.75;;;14.15;;
69890;SDS011;57170;43.964;21.262;2023-07-24T08:23:04;15.07;;;13.25;;
69890;SDS011;57170;43.964;21.262;2023-07-24T08:25:30;16.23;;;14.18;;
69890;SDS011;57170;43.964;21.262;2023-07-24T08:27:56;14.55;;;12.90;;
69890;SDS011;57170;43.964;21.262;2023-07-24T08:30:22;14.88;;;13.48;;
69890;SDS011;57170;43.964;21.262;2023-07-24T08:32:48;14.07;;;12.60;;
69890;SDS011;57170;43.964;21.262;2023-07-24T08:35:19;15.00;;;13.48;;
69890;SDS011;57170;43.964;21.262;2023-07-24T08:37:45;14.60;;;13.10;;
69890;SDS011;57170;43.964;21.262;2023-07-24T08:40:11;15.57;;;12.70;;
69890;SDS011;57170;43.964;21.262;2023-07-24T08:42:42;16.58;;;14.70;;
69890;SDS011;57170;43.964;21.262;2023-07-24T08:45:11;14.70;;;13.13;;
69890;SDS011;57170;43.964;21.262;2023-07-24T08:47:40;18.35;;;14.52;;
69890;SDS011;57170;43.964;21.262;2023-07-24T08:50:07;15.77;;;14.20;;
69890;SDS011;57170;43.964;21.262;2023-07-24T08:52:36;17.08;;;13.32;;
69890;SDS011;57170;43.964;21.262;2023-07-24T08:55:02;15.18;;;13.75;;
69890;SDS011;57170;43.964;21.262;2023-07-24T08:57:29;16.30;;;14.40;;
69890;SDS011;57170;43.964;21.262;2023-07-24T08:59:56;16.17;;;14.38;;
69890;SDS011;57170;43.964;21.262;2023-07-24T09:02:23;14.90;;;13.30;;
69890;SDS011;57170;43.964;21.262;2023-07-24T09:04:49;16.33;;;14.23;;
69890;SDS011;57170;43.964;21.262;2023-07-24T09:07:15;16.05;;;14.35;;
69890;SDS011;57170;43.964;21.262;2023-07-24T09:09:42;15.90;;;12.88;;
69890;SDS011;57170;43.964;21.262;2023-07-24T09:12:08;16.98;;;13.80;;
69890;SDS011;57170;43.964;21.262;2023-07-24T09:14:34;17.80;;;13.57;;
69890;SDS011;57170;43.964;21.262;2023-07-24T09:17:01;16.35;;;13.32;;
69890;SDS011;57170;43.964;21.262;2023-07-24T09:19:27;15.60;;;13.73;;
69890;SDS011;57170;43.964;21.262;2023-07-24T09:21:53;16.23;;;14.52;;
69890;SDS011;57170;43.964;21.262;2023-07-24T09:24:20;15.63;;;13.98;;
69890;SDS011;57170;43.964;21.262;2023-07-24T09:26:47;15.13;;;13.48;;
69890;SDS011;57170;43.964;21.262;2023-07-24T09:29:13;17.90;;;13.77;;
69890;SDS011;57170;43.964;21.262;2023-07-24T09:31:39;16.88;;;13.43;;
69890;SDS011;57170;43.964;21.262;2023-07-24T09:34:13;15.48;;;13.93;;
69890;SDS011;57170;43.964;21.262;2023-07-24T09:36:41;16.88;;;14.25;;
69890;SDS011;57170;43.964;21.262;2023-07-24T09:39:09;16.48;;;14.52;;
69890;SDS011;57170;43.964;21.262;2023-07-24T09:41:37;14.13;;;12.82;;
69890;SDS011;57170;43.964;21.262;2023-07-24T09:44:03;21.15;;;15.35;;
69890;SDS011;57170;43.964;21.262;2023-07-24T09:46:29;16.33;;;13.82;;
69890;SDS011;57170;43.964;21.262;2023-07-24T09:48:57;15.27;;;13.38;;
69890;SDS011;57170;43.964;21.262;2023-07-24T09:51:23;20.30;;;14.25;;
69890;SDS011;57170;43.964;21.262;2023-07-24T09:53:53;16.27;;;13.48;;
69890;SDS011;57170;43.964;21.262;2023-07-24T09:56:21;16.25;;;13.63;;
69890;SDS011;57170;43.964;21.262;2023-07-24T09:58:48;19.67;;;15.13;;
69890;SDS011;57170;43.964;21.262;2023-07-24T10:01:19;20.38;;;15.60;;
69890;SDS011;57170;43.964;21.262;2023-07-24T10:03:49;18.98;;;15.80;;
69890;SDS011;57170;43.964;21.262;2023-07-24T10:06:15;18.63;;;14.75;;
69890;SDS011;57170;43.964;21.262;2023-07-24T10:08:42;19.85;;;15.23;;
69890;SDS011;57170;43.964;21.262;2023-07-24T10:11:09;19.77;;;15.15;;
69890;SDS011;57170;43.964;21.262;2023-07-24T10:13:36;19.98;;;17.15;;
69890;SDS011;57170;43.964;21.262;2023-07-24T10:16:03;22.08;;;17.30;;
69890;SDS011;57170;43.964;21.262;2023-07-24T10:18:31;21.17;;;16.58;;
69890;SDS011;57170;43.964;21.262;2023-07-24T10:21:02;22.33;;;16.35;;
69890;SDS011;57170;43.964;21.262;2023-07-24T10:23:28;24.20;;;18.42;;
69890;SDS011;57170;43.964;21.262;2023-07-24T10:25:54;23.67;;;17.55;;
69890;SDS011;57170;43.964;21.262;2023-07-24T10:28:29;22.60;;;17.20;;
69890;SDS011;57170;43.964;21.262;2023-07-24T10:30:56;19.05;;;16.40;;
69890;SDS011;57170;43.964;21.262;2023-07-24T10:33:22;21.55;;;16.83;;
69890;SDS011;57170;43.964;21.262;2023-07-24T10:35:54;26.13;;;17.95;;
69890;SDS011;57170;43.964;21.262;2023-07-24T10:38:39;25.50;;;17.65;;
69890;SDS011;57170;43.964;21.262;2023-07-24T10:41:05;24.10;;;17.15;;
69890;SDS011;57170;43.964;21.262;2023-07-24T10:43:42;21.80;;;18.17;;
69890;SDS011;57170;43.964;21.262;2023-07-24T10:46:08;19.92;;;16.48;;
69890;SDS011;57170;43.964;21.262;2023-07-24T10:48:35;22.15;;;17.65;;
69890;SDS011;57170;43.964;21.262;2023-07-24T10:51:05;22.60;;;17.90;;
69890;SDS011;57170;43.964;21.262;2023-07-24T10:53:34;22.90;;;17.90;;
69890;SDS011;57170;43.964;21.262;2023-07-24T10:56:00;21.60;;;17.13;;
69890;SDS011;57170;43.964;21.262;2023-07-24T10:58:26;21.98;;;17.55;;
69890;SDS011;57170;43.964;21.262;2023-07-24T11:00:52;25.58;;;17.45;;
69890;SDS011;57170;43.964;21.262;2023-07-24T11:03:20;22.13;;;17.42;;
69890;SDS011;57170;43.964;21.262;2023-07-24T11:05:47;21.23;;;17.17;;
69890;SDS011;57170;43.964;21.262;2023-07-24T11:08:14;24.27;;;18.33;;
69890;SDS011;57170;43.964;21.262;2023-07-24T11:10:44;22.45;;;18.13;;
69890;SDS011;57170;43.964;21.262;2023-07-24T11:13:11;20.83;;;18.35;;
69890;SDS011;57170;43.964;21.262;2023-07-24T11:15:37;19.95;;;16.83;;
69890;SDS011;57170;43.964;21.262;2023-07-24T11:18:03;21.48;;;17.35;;
69890;SDS011;57170;43.964;21.262;2023-07-24T11:20:33;22.02;;;18.02;;
69890;SDS011;57170;43.964;21.262;2023-07-24T11:22:59;24.95;;;18.38;;
69890;SDS011;57170;43.964;21.262;2023-07-24T11:25:25;22.52;;;16.90;;
69890;SDS011;57170;43.964;21.262;2023-07-24T11:27:51;23.65;;;17.35;;
69890;SDS011;57170;43.964;21.262;2023-07-24T11:30:20;24.08;;;16.65;;
69890;SDS011;57170;43.964;21.262;2023-07-24T11:32:47;24.40;;;17.33;;
69890;SDS011;57170;43.964;21.262;2023-07-24T11:35:13;21.35;;;17.38;;
69890;SDS011;57170;43.964;21.262;2023-07-24T11:37:40;20.95;;;15.98;;
69890;SDS011;57170;43.964;21.262;2023-07-24T11:40:06;27.55;;;18.13;;
69890;SDS011;57170;43.964;21.262;2023-07-24T11:42:38;19.08;;;15.82;;
69890;SDS011;57170;43.964;21.262;2023-07-24T11:45:07;20.30;;;16.30;;
69890;SDS011;57170;43.964;21.262;2023-07-24T11:47:44;21.45;;;15.80;;
69890;SDS011;57170;43.964;21.262;2023-07-24T11:50:11;20.17;;;16.25;;
69890;SDS011;57170;43.964;21.262;2023-07-24T11:52:38;19.63;;;16.10;;
69890;SDS011;57170;43.964;21.262;2023-07-24T11:55:05;19.60;;;15.85;;
69890;SDS011;57170;43.964;21.262;2023-07-24T11:57:31;19.60;;;15.68;;
69890;SDS011;57170;43.964;21.262;2023-07-24T11:59:57;19.88;;;15.55;;
69890;SDS011;57170;43.964;21.262;2023-07-24T12:02:27;19.92;;;16.58;;
69890;SDS011;57170;43.964;21.262;2023-07-24T12:04:56;21.55;;;16.10;;
69890;SDS011;57170;43.964;21.262;2023-07-24T12:07:27;18.40;;;15.65;;
69890;SDS011;57170;43.964;21.262;2023-07-24T12:09:54;19.52;;;15.70;;
69890;SDS011;57170;43.964;21.262;2023-07-24T12:12:20;24.85;;;15.73;;
69890;SDS011;57170;43.964;21.262;2023-07-24T12:14:46;18.33;;;15.23;;
69890;SDS011;57170;43.964;21.262;2023-07-24T12:17:17;19.75;;;15.40;;
69890;SDS011;57170;43.964;21.262;2023-07-24T12:19:43;18.15;;;15.52;;
69890;SDS011;57170;43.964;21.262;2023-07-24T12:22:09;21.10;;;16.67;;
69890;SDS011;57170;43.964;21.262;2023-07-24T12:24:35;21.05;;;16.23;;
69890;SDS011;57170;43.964;21.262;2023-07-24T12:27:01;18.83;;;15.80;;
69890;SDS011;57170;43.964;21.262;2023-07-24T12:29:27;19.75;;;15.98;;
69890;SDS011;57170;43.964;21.262;2023-07-24T12:31:54;21.05;;;15.10;;
69890;SDS011;57170;43.964;21.262;2023-07-24T12:34:20;18.65;;;15.52;;
69890;SDS011;57170;43.964;21.262;2023-07-24T12:36:46;20.52;;;15.68;;
69890;SDS011;57170;43.964;21.262;2023-07-24T12:39:12;19.45;;;14.35;;
69890;SDS011;57170;43.964;21.262;2023-07-24T12:41:38;21.83;;;15.32;;
69890;SDS011;57170;43.964;21.262;2023-07-24T12:44:05;18.42;;;16.00;;
69890;SDS011;57170;43.964;21.262;2023-07-24T12:46:31;19.65;;;14.93;;
69890;SDS011;57170;43.964;21.262;2023-07-24T12:48:57;20.15;;;15.35;;
69890;SDS011;57170;43.964;21.262;2023-07-24T12:51:23;20.25;;;15.70;;
69890;SDS011;57170;43.964;21.262;2023-07-24T12:53:50;21.38;;;15.20;;
69890;SDS011;57170;43.964;21.262;2023-07-24T12:56:16;19.63;;;16.25;;
69890;SDS011;57170;43.964;21.262;2023-07-24T12:58:42;18.92;;;15.55;;
69890;SDS011;57170;43.964;21.262;2023-07-24T13:01:09;18.02;;;14.60;;
69890;SDS011;57170;43.964;21.262;2023-07-24T13:03:35;17.73;;;14.93;;
69890;SDS011;57170;43.964;21.262;2023-07-24T13:06:01;19.92;;;15.23;;
69890;SDS011;57170;43.964;21.262;2023-07-24T13:08:27;18.63;;;15.98;;
69890;SDS011;57170;43.964;21.262;2023-07-24T13:10:53;18.58;;;15.10;;
69890;SDS011;57170;43.964;21.262;2023-07-24T13:13:19;18.73;;;15.73;;
69890;SDS011;57170;43.964;21.262;2023-07-24T13:15:45;34.65;;;17.50;;
69890;SDS011;57170;43.964;21.262;2023-07-24T13:18:11;19.88;;;14.50;;
69890;SDS011;57170;43.964;21.262;2023-07-24T13:20:40;18.90;;;14.90;;
69890;SDS011;57170;43.964;21.262;2023-07-24T13:23:06;19.80;;;16.00;;
69890;SDS011;57170;43.964;21.262;2023-07-24T13:25:32;19.48;;;15.00;;
69890;SDS011;57170;43.964;21.262;2023-07-24T13:27:58;22.20;;;14.95;;
69890;SDS011;57170;43.964;21.262;2023-07-24T13:30:24;20.90;;;16.00;;
69890;SDS011;57170;43.964;21.262;2023-07-24T13:32:51;19.52;;;14.43;;
69890;SDS011;57170;43.964;21.262;2023-07-24T13:35:17;21.05;;;15.55;;
69890;SDS011;57170;43.964;21.262;2023-07-24T13:37:43;17.58;;;14.82;;
69890;SDS011;57170;43.964;21.262;2023-07-24T13:40:09;18.02;;;14.27;;
69890;SDS011;57170;43.964;21.262;2023-07-24T13:42:35;18.48;;;15.38;;
69890;SDS011;57170;43.964;21.262;2023-07-24T13:45:01;19.48;;;15.48;;
69890;SDS011;57170;43.964;21.262;2023-07-24T13:47:28;19.77;;;15.10;;
69890;SDS011;57170;43.964;21.262;2023-07-24T13:49:54;20.73;;;15.98;;
69890;SDS011;57170;43.964;21.262;2023-07-24T13:52:20;22.00;;;16.17;;
69890;SDS011;57170;43.964;21.262;2023-07-24T13:54:46;20.20;;;15.05;;
69890;SDS011;57170;43.964;21.262;2023-07-24T13:57:13;21.20;;;15.05;;
69890;SDS011;57170;43.964;21.262;2023-07-24T13:59:39;21.00;;;14.90;;
69890;SDS011;57170;43.964;21.262;2023-07-24T14:02:05;16.85;;;15.05;;
69890;SDS011;57170;43.964;21.262;2023-07-24T14:04:32;17.67;;;13.50;;
69890;SDS011;57170;43.964;21.262;2023-07-24T14:06:58;20.38;;;15.88;;
69890;SDS011;57170;43.964;21.262;2023-07-24T14:09:24;23.08;;;14.88;;